メインページ
METAR-TAF:

METAR-TAF

空港 :

Red Deer, アルバータ州, カナダ

緯度: 52-11N, 経度: 113-54W, 海抜: 905m

現時点の気象観測

当レポートは42分前の02:00(UTC)に作成
の風 2kt
気温 -9°C
湿度 79%
気圧 1007 hPa
視程: 24.1km
高度8000ftの雲はほとんどない
高度14000ftの雲はほとんどない
高度25000ftの雲は散在している

METAR: CYQF 070200Z 18002KT 15SM FEW080 FEW140 SCT250 M09/M12 A2973 RMK AC1AC1CI2 SLP129

時間: 19:42 (02:42 UTC)

予報

当レポートは3時間4分前の23:38(UTC)に作成
予報は07日の 00時(UTC)から 07日の 12時(UTC)まで有効
の風 5kt
視程: 10km
高度9000ftの千切れ雲あり
高度25000ftの千切れ雲あり
07日の 04時(UTC)から 07日の 06時(UTC)まで徐々に
西/南西の風 5kt
07日の 10時(UTC)から 07日の 12時(UTC)まで徐々に
西/北西の風 5kt

TAF: CYQF 062338Z 0700/0712 18005KT P6SM BKN090 BKN250 BECMG 0704/0706 24005KT BECMG 0710/0712 30005KT RMK NXT FCST BY 070600Z

4,000以上の空港の気象観測と天気予報(METAR報とTAF報)

利用可能な観測所は地図上に黄色い丸と赤い丸で示す。

丸の上にカーソルを重ねると観測所名を参照できる。

次にクリックすると気象観測と天気予報を参照できる。

マップの切り替え:黒色「×」印の緑ボタンをクリックして拡大、「-」印の緑ボタンをクリックして縮小、緑色の三角印をクリックして隣りの地図に切り替え


METAR-TAF: